Time;durP1;ratioP1;P1;durP2;ratioP2;P2;SDS_P1;SDS_P2;PMS_P1;PMS_P2;Temp;Humidity;BMP_temperature;BMP_pressure;BME280_temperature;BME280_humidity;BME280_pressure;Samples;Min_cycle;Max_cycle;Signal;HPM_P1;HPM_P2
2020/12/08 00:00:21;;;;;;;7.57;1.63;;;12.70;99.90;;;;;;4803759;29;20494;-80
2020/12/08 00:02:48;;;;;;;5.38;1.95;;;12.70;99.90;;;;;;4787563;29;20122;-80
2020/12/08 00:05:19;;;;;;;3.38;1.42;;;12.70;99.90;;;;;;4796161;29;20397;-79
2020/12/08 00:07:45;;;;;;;6.15;2.28;;;12.70;99.90;;;;;;4822336;29;20058;-80
2020/12/08 00:10:12;;;;;;;4.65;1.95;;;12.70;99.90;;;;;;4822074;29;20046;-79
2020/12/08 00:12:38;;;;;;;6.35;2.00;;;12.70;99.90;;;;;;4821753;29;20149;-78
2020/12/08 00:15:05;;;;;;;4.20;1.50;;;12.60;99.90;;;;;;4816286;29;20038;-77
2020/12/08 00:17:32;;;;;;;6.40;2.08;;;12.60;99.90;;;;;;4803506;29;20031;-78
2020/12/08 00:19:58;;;;;;;6.72;1.55;;;12.60;99.90;;;;;;4787113;29;20035;-78
2020/12/08 00:22:24;;;;;;;4.32;1.40;;;12.60;99.90;;;;;;4786471;29;20034;-78
2020/12/08 00:24:50;;;;;;;5.07;1.90;;;12.50;99.90;;;;;;4802754;29;20095;-77
2020/12/08 00:27:17;;;;;;;4.63;1.83;;;12.50;99.90;;;;;;4820734;29;20442;-78
2020/12/08 00:29:43;;;;;;;8.65;2.25;;;12.50;99.90;;;;;;4812547;29;20027;-78
2020/12/08 00:32:09;;;;;;;4.03;1.63;;;12.60;99.90;;;;;;4803106;29;20486;-78
2020/12/08 00:34:38;;;;;;;2.55;1.77;;;12.60;99.90;;;;;;4803350;29;20038;-78
2020/12/08 00:37:05;;;;;;;3.75;1.15;;;12.60;99.90;;;;;;4818287;29;20034;-77
2020/12/08 00:39:33;;;;;;;2.40;1.13;;;12.50;99.90;;;;;;4811942;29;20803;-78
2020/12/08 00:41:59;;;;;;;8.00;1.73;;;12.60;99.90;;;;;;4803283;29;20039;-78
2020/12/08 00:44:25;;;;;;;4.45;0.90;;;12.60;99.90;;;;;;4786662;29;20031;-78
2020/12/08 00:46:52;;;;;;;3.05;1.20;;;12.60;99.90;;;;;;4797373;29;20091;-79
2020/12/08 00:49:20;;;;;;;6.65;2.22;;;12.60;99.90;;;;;;4804585;29;20026;-78
2020/12/08 00:51:47;;;;;;;3.25;1.20;;;12.60;99.90;;;;;;4804611;29;20038;-78
2020/12/08 00:54:13;;;;;;;2.70;0.98;;;12.60;99.90;;;;;;4804918;29;20046;-78
2020/12/08 00:56:40;;;;;;;3.10;1.20;;;12.60;99.90;;;;;;4797767;29;20035;-78
2020/12/08 00:59:06;;;;;;;1.65;1.00;;;12.70;99.90;;;;;;4786426;29;20134;-78
2020/12/08 01:01:32;;;;;;;4.72;1.60;;;12.60;99.90;;;;;;4786470;29;20048;-78
2020/12/08 01:04:02;;;;;;;1.30;0.80;;;12.60;99.90;;;;;;4786423;29;20045;-78
2020/12/08 01:06:29;;;;;;;2.55;1.65;;;12.60;99.90;;;;;;4805409;29;20078;-78
2020/12/08 01:08:55;;;;;;;1.20;0.98;;;12.60;99.90;;;;;;4820422;29;20045;-78
2020/12/08 01:11:22;;;;;;;5.13;1.33;;;12.60;99.90;;;;;;4804560;29;20498;-78
2020/12/08 01:13:48;;;;;;;1.42;0.88;;;12.60;99.90;;;;;;4802964;29;20042;-78
2020/12/08 01:16:24;;;;;;;4.53;1.30;;;12.60;99.90;;;;;;4787362;29;20267;-77
2020/12/08 01:18:53;;;;;;;1.48;0.70;;;12.60;99.90;;;;;;4804319;29;20402;-78
2020/12/08 01:21:19;;;;;;;2.03;1.20;;;12.60;99.90;;;;;;4804315;29;20027;-78
2020/12/08 01:23:47;;;;;;;3.50;1.95;;;12.50;99.90;;;;;;4804211;29;20055;-78
2020/12/08 01:26:20;;;;;;;3.08;1.10;;;12.40;99.90;;;;;;4820682;29;20042;-78
2020/12/08 01:28:46;;;;;;;2.53;1.20;;;12.40;99.90;;;;;;4805674;29;20031;-78
2020/12/08 01:31:13;;;;;;;2.40;1.30;;;12.30;99.90;;;;;;4802110;29;20030;-78
2020/12/08 01:33:39;;;;;;;1.88;1.23;;;12.30;99.90;;;;;;4785862;29;20577;-78
2020/12/08 01:36:05;;;;;;;3.53;1.45;;;12.20;99.90;;;;;;4802263;29;20030;-78
2020/12/08 01:38:31;;;;;;;5.57;1.33;;;12.10;99.90;;;;;;4802829;29;20035;-78
2020/12/08 01:40:57;;;;;;;2.10;1.33;;;12.10;99.90;;;;;;4786198;29;20074;-78
2020/12/08 01:43:26;;;;;;;3.15;1.73;;;12.10;99.90;;;;;;4786181;29;20035;-78
2020/12/08 01:45:53;;;;;;;2.10;1.10;;;12.10;99.90;;;;;;4786056;29;20395;-78
2020/12/08 01:48:20;;;;;;;7.70;1.95;;;12.00;99.90;;;;;;4791916;29;20077;-78
2020/12/08 01:50:48;;;;;;;3.47;1.27;;;12.00;99.90;;;;;;4803813;29;20070;-78
2020/12/08 01:53:16;;;;;;;3.08;1.38;;;12.00;99.90;;;;;;4803679;29;20118;-78
2020/12/08 01:55:48;;;;;;;6.32;1.80;;;12.00;99.90;;;;;;4804005;29;20041;-78
2020/12/08 01:58:20;;;;;;;2.22;1.23;;;12.00;99.90;;;;;;4785836;29;20038;-78
2020/12/08 02:00:48;;;;;;;2.72;1.25;;;11.90;99.90;;;;;;4785961;29;20084;-77
2020/12/08 02:03:16;;;;;;;1.92;1.38;;;11.90;99.90;;;;;;4785724;29;20031;-79
2020/12/08 02:05:43;;;;;;;4.13;1.30;;;12.00;99.90;;;;;;4786015;29;20039;-77
2020/12/08 02:08:10;;;;;;;1.95;1.20;;;12.00;99.90;;;;;;4801935;29;20045;-77
2020/12/08 02:10:40;;;;;;;2.40;1.27;;;12.00;99.90;;;;;;4771327;29;20439;-78
2020/12/08 02:13:10;;;;;;;2.35;1.35;;;12.00;99.90;;;;;;4785564;29;20524;-78
2020/12/08 02:15:40;;;;;;;2.70;1.53;;;12.00;99.90;;;;;;4785679;29;20045;-78
2020/12/08 02:18:06;;;;;;;2.47;1.27;;;12.00;99.90;;;;;;4802034;29;20288;-78
2020/12/08 02:20:35;;;;;;;1.55;1.30;;;12.00;99.90;;;;;;4789441;29;20034;-78
2020/12/08 02:23:03;;;;;;;1.88;1.25;;;12.00;99.90;;;;;;4805164;29;20051;-78
2020/12/08 02:25:33;;;;;;;4.60;1.33;;;11.90;99.90;;;;;;4789024;29;20122;-77
2020/12/08 02:28:03;;;;;;;4.03;1.40;;;11.90;99.90;;;;;;4789128;29;20047;-78
2020/12/08 02:30:30;;;;;;;2.35;1.83;;;11.80;99.90;;;;;;4814488;29;20030;-78
2020/12/08 02:32:56;;;;;;;2.55;1.65;;;11.70;99.90;;;;;;4807383;29;20050;-78
2020/12/08 02:35:22;;;;;;;3.40;1.80;;;11.60;99.90;;;;;;4823258;29;20038;-78
2020/12/08 02:37:49;;;;;;;7.13;1.90;;;11.70;99.90;;;;;;4807213;29;20908;-78
2020/12/08 02:40:16;;;;;;;7.25;2.60;;;11.60;99.90;;;;;;4816593;29;20112;-78
2020/12/08 02:42:44;;;;;;;5.50;2.00;;;11.50;99.90;;;;;;4788921;29;20031;-78
2020/12/08 02:45:11;;;;;;;6.28;2.90;;;11.50;99.90;;;;;;4788870;29;20401;-78
2020/12/08 02:47:38;;;;;;;5.90;2.22;;;11.50;99.90;;;;;;4788709;29;20091;-78
2020/12/08 02:50:04;;;;;;;4.65;2.47;;;11.50;99.90;;;;;;4807163;29;20386;-77
2020/12/08 02:52:35;;;;;;;3.90;2.17;;;11.50;99.90;;;;;;4806640;29;20046;-78
2020/12/08 02:55:02;;;;;;;4.40;2.38;;;11.50;99.90;;;;;;4806740;29;20046;-78
2020/12/08 02:57:33;;;;;;;4.40;2.13;;;11.60;99.90;;;;;;4792447;29;20034;-78
2020/12/08 03:00:02;;;;;;;10.73;2.78;;;11.60;99.90;;;;;;4792106;29;20085;-78
2020/12/08 03:02:30;;;;;;;9.52;2.78;;;11.50;99.90;;;;;;4804574;29;20090;-78
2020/12/08 03:04:56;;;;;;;5.30;2.53;;;11.60;99.90;;;;;;4806658;29;20474;-78
2020/12/08 03:07:25;;;;;;;5.03;2.40;;;11.50;99.90;;;;;;4806741;29;20042;-78
2020/12/08 03:09:51;;;;;;;5.45;2.72;;;11.50;99.90;;;;;;4806633;29;20563;-78
2020/12/08 03:12:18;;;;;;;4.90;2.80;;;11.50;99.90;;;;;;4793032;29;20042;-79
2020/12/08 03:14:48;;;;;;;4.15;2.38;;;11.50;99.90;;;;;;4788502;29;20042;-78
2020/12/08 03:17:23;;;;;;;5.15;2.50;;;11.50;99.90;;;;;;4802042;29;20623;-78
2020/12/08 03:19:50;;;;;;;4.30;2.58;;;11.50;99.90;;;;;;4806342;29;20537;-78
2020/12/08 03:22:17;;;;;;;17.08;2.25;;;11.50;99.90;;;;;;4805321;29;20045;-79
2020/12/08 03:24:49;;;;;;;4.07;2.22;;;11.40;99.90;;;;;;4806126;29;20492;-78
2020/12/08 03:27:18;;;;;;;4.75;2.72;;;11.40;99.90;;;;;;4806196;29;20039;-78
2020/12/08 03:29:47;;;;;;;3.85;2.13;;;11.40;99.90;;;;;;4806080;29;20051;-78
2020/12/08 03:32:16;;;;;;;6.90;2.65;;;11.40;99.90;;;;;;4800377;29;20038;-78
2020/12/08 03:34:42;;;;;;;2.88;2.20;;;11.40;99.90;;;;;;4806030;29;20044;-78
2020/12/08 03:37:09;;;;;;;5.03;2.20;;;11.30;99.90;;;;;;4806060;29;20033;-78
2020/12/08 03:39:35;;;;;;;3.33;2.33;;;11.30;99.90;;;;;;4806247;29;20038;-78
2020/12/08 03:42:03;;;;;;;6.07;2.97;;;11.30;99.90;;;;;;4802545;29;20097;-78
2020/12/08 03:44:32;;;;;;;3.35;2.30;;;11.30;99.90;;;;;;4787783;29;20095;-78
2020/12/08 03:47:04;;;;;;;4.43;1.90;;;11.40;99.90;;;;;;4773822;29;20035;-78
2020/12/08 03:49:33;;;;;;;12.85;2.40;;;11.40;99.90;;;;;;4787709;29;20039;-78
2020/12/08 03:52:02;;;;;;;5.28;1.60;;;11.40;99.90;;;;;;4773661;29;20035;-78
2020/12/08 03:54:28;;;;;;;8.48;2.08;;;11.40;99.90;;;;;;4805934;29;20046;-78
2020/12/08 03:56:55;;;;;;;4.28;1.42;;;11.40;99.90;;;;;;4804662;29;20393;-78
2020/12/08 03:59:24;;;;;;;5.35;1.60;;;11.40;99.90;;;;;;4793463;29;20037;-78
2020/12/08 04:01:59;;;;;;;3.13;2.55;;;11.40;99.90;;;;;;4787723;29;20810;-78
2020/12/08 04:04:26;;;;;;;3.08;1.27;;;11.40;99.90;;;;;;4788064;29;20041;-78
2020/12/08 04:06:52;;;;;;;2.70;1.40;;;11.40;99.90;;;;;;4803786;29;20034;-78
2020/12/08 04:09:19;;;;;;;4.03;2.05;;;11.40;99.90;;;;;;4787461;29;20099;-79
2020/12/08 04:11:45;;;;;;;5.95;2.80;;;11.40;99.90;;;;;;4803884;29;20026;-78
2020/12/08 04:14:11;;;;;;;4.72;1.33;;;11.40;99.90;;;;;;4796038;29;20196;-78
2020/12/08 04:16:44;;;;;;;3.08;0.90;;;11.40;99.90;;;;;;4805604;29;20129;-78
2020/12/08 04:19:16;;;;;;;2.78;1.45;;;11.40;99.90;;;;;;4805410;29;20035;-78
2020/12/08 04:22:06;;;;;;;2.17;1.10;;;11.40;99.90;;;;;;4790170;29;20038;-78
2020/12/08 04:24:45;;;;;;;4.95;1.27;;;11.40;99.90;;;;;;4804293;29;20043;-78
2020/12/08 04:27:12;;;;;;;2.30;1.00;;;11.40;99.90;;;;;;4804824;29;20538;-78
2020/12/08 04:29:47;;;;;;;4.22;1.10;;;11.30;99.90;;;;;;4810371;29;20038;-78
2020/12/08 04:32:16;;;;;;;3.28;1.33;;;11.30;99.90;;;;;;4804904;29;20042;-77
2020/12/08 04:34:42;;;;;;;3.22;1.00;;;11.30;99.90;;;;;;4821274;29;20062;-78
2020/12/08 04:37:08;;;;;;;3.28;1.08;;;11.30;99.90;;;;;;4823968;29;20516;-78
2020/12/08 04:39:35;;;;;;;3.55;1.30;;;11.30;99.90;;;;;;4821353;29;20038;-77
2020/12/08 04:42:02;;;;;;;4.10;1.10;;;11.30;99.90;;;;;;4821467;29;20030;-78
2020/12/08 04:44:30;;;;;;;4.10;1.30;;;11.30;99.90;;;;;;4799167;29;20038;-79
2020/12/08 04:46:58;;;;;;;2.92;1.20;;;11.30;99.90;;;;;;4803105;29;20419;-78
2020/12/08 04:49:25;;;;;;;2.05;1.17;;;11.30;99.90;;;;;;4802800;29;20031;-78
2020/12/08 04:51:52;;;;;;;1.88;1.20;;;11.30;99.90;;;;;;4804155;29;20023;-78
2020/12/08 04:54:18;;;;;;;2.33;1.30;;;11.30;99.90;;;;;;4820414;29;20053;-78
2020/12/08 04:56:47;;;;;;;0.80;0.80;;;11.30;99.90;;;;;;4821063;29;20088;-78
2020/12/08 04:59:24;;;;;;;1.27;1.00;;;11.30;99.90;;;;;;4820722;29;20038;-79
2020/12/08 05:01:50;;;;;;;1.73;1.13;;;11.20;99.90;;;;;;4827720;29;20053;-78
2020/12/08 05:04:23;;;;;;;2.63;0.80;;;11.20;99.90;;;;;;4827923;29;20057;-78
2020/12/08 05:07:02;;;;;;;;;;;11.20;99.90;;;;;;4828355;29;20026;-78
2020/12/08 05:09:28;;;;;;;3.55;1.10;;;11.20;99.90;;;;;;4826988;29;19917;-78
2020/12/08 05:12:00;;;;;;;6.65;1.77;;;11.20;99.90;;;;;;4830333;29;20038;-77
2020/12/08 05:14:27;;;;;;;2.08;0.88;;;11.20;99.90;;;;;;4821095;29;20098;-79
2020/12/08 05:17:25;;;;;;;3.53;1.48;;;11.10;99.90;;;;;;4820454;29;20030;-77
2020/12/08 05:20:03;;;;;;;1.83;1.10;;;11.10;99.90;;;;;;4820609;29;20030;-78
2020/12/08 05:22:30;;;;;;;2.38;1.33;;;11.10;99.90;;;;;;4820745;29;20087;-78
2020/12/08 05:25:07;;;;;;;2.13;1.17;;;11.10;99.90;;;;;;4804291;29;20432;-78
2020/12/08 05:27:33;;;;;;;2.83;0.70;;;11.10;99.90;;;;;;4824296;29;20026;-79
2020/12/08 05:30:07;;;;;;;6.57;1.20;;;11.10;99.90;;;;;;4835769;29;20125;-80
2020/12/08 05:32:38;;;;;;;3.38;1.15;;;11.20;99.90;;;;;;4825592;29;20038;-78
2020/12/08 05:35:08;;;;;;;1.60;0.95;;;11.20;99.90;;;;;;4806887;29;20034;-78
2020/12/08 05:37:45;;;;;;;2.20;1.10;;;11.20;99.90;;;;;;4820597;29;20481;-78
2020/12/08 05:40:18;;;;;;;1.98;0.60;;;11.30;99.90;;;;;;4803735;29;20038;-78
2020/12/08 05:42:49;;;;;;;4.55;1.20;;;11.30;99.90;;;;;;4820643;29;20473;-79
2020/12/08 05:45:21;;;;;;;1.23;0.68;;;11.40;99.90;;;;;;4820651;29;20114;-79
2020/12/08 05:47:53;;;;;;;12.02;2.05;;;11.40;99.90;;;;;;4804049;29;20046;-78
2020/12/08 05:50:21;;;;;;;3.00;1.00;;;11.50;99.90;;;;;;4819759;29;20060;-79
2020/12/08 05:52:49;;;;;;;1.15;0.68;;;11.50;99.90;;;;;;4802267;29;20398;-79
2020/12/08 05:55:21;;;;;;;3.00;0.80;;;11.50;99.90;;;;;;4801827;29;20026;-78
2020/12/08 05:57:48;;;;;;;3.58;1.20;;;11.50;99.90;;;;;;4802000;29;20035;-78
2020/12/08 06:00:23;;;;;;;2.58;1.40;;;11.40;99.90;;;;;;4802089;29;20034;-78
2020/12/08 06:02:51;;;;;;;2.65;1.15;;;11.40;99.90;;;;;;4818707;29;20045;-78
2020/12/08 06:05:31;;;;;;;3.53;0.80;;;11.40;99.90;;;;;;4820355;29;20525;-78
2020/12/08 06:07:59;;;;;;;3.40;1.45;;;11.40;99.90;;;;;;4820689;29;20042;-78
2020/12/08 06:10:26;;;;;;;2.25;0.98;;;11.40;99.90;;;;;;4820432;29;20033;-79
2020/12/08 06:13:00;;;;;;;8.40;1.63;;;11.40;99.90;;;;;;4789104;29;20054;-78
2020/12/08 06:15:39;;;;;;;6.53;1.10;;;11.30;99.90;;;;;;4802115;29;20043;-78
2020/12/08 06:18:07;;;;;;;5.57;1.38;;;11.30;99.90;;;;;;4802010;29;20034;-79
2020/12/08 06:20:37;;;;;;;2.60;1.05;;;11.40;99.90;;;;;;4802018;29;20091;-79
2020/12/08 06:23:05;;;;;;;3.30;1.20;;;11.40;99.90;;;;;;4808413;29;20047;-79
2020/12/08 06:25:31;;;;;;;1.48;0.90;;;11.40;99.90;;;;;;4801853;29;20043;-78
2020/12/08 06:28:04;;;;;;;2.50;1.00;;;11.40;99.90;;;;;;4801970;29;20026;-78
2020/12/08 06:30:30;;;;;;;1.35;0.85;;;11.50;99.90;;;;;;4802065;29;20386;-79
2020/12/08 06:32:56;;;;;;;2.47;1.50;;;11.50;99.90;;;;;;4804228;29;20050;-79
2020/12/08 06:35:22;;;;;;;3.45;1.15;;;11.60;99.90;;;;;;4820144;29;20058;-79
2020/12/08 06:37:56;;;;;;;3.75;1.20;;;11.70;99.90;;;;;;4820103;29;20542;-79
2020/12/08 06:40:24;;;;;;;3.88;1.60;;;11.70;99.90;;;;;;4820199;29;20113;-79
2020/12/08 06:42:51;;;;;;;5.20;1.73;;;11.70;99.90;;;;;;4803939;29;20040;-79
2020/12/08 06:45:20;;;;;;;6.90;1.60;;;11.80;99.90;;;;;;4803196;29;20034;-78
2020/12/08 06:47:47;;;;;;;2.20;1.35;;;11.80;99.90;;;;;;4829438;29;20022;-79
2020/12/08 06:50:29;;;;;;;4.07;1.52;;;11.90;99.90;;;;;;4830371;29;20030;-77
2020/12/08 06:52:56;;;;;;;1.10;1.00;;;11.90;99.90;;;;;;4822199;29;20046;-78
2020/12/08 06:55:23;;;;;;;2.53;1.35;;;11.90;99.90;;;;;;4819580;29;20038;-78
2020/12/08 06:57:49;;;;;;;2.75;1.30;;;11.90;99.90;;;;;;4819903;29;20031;-78
2020/12/08 07:00:16;;;;;;;2.38;1.40;;;11.80;99.90;;;;;;4819696;29;20559;-79
2020/12/08 07:02:50;;;;;;;7.93;1.48;;;11.80;99.90;;;;;;4803528;29;20042;-78
2020/12/08 07:05:27;;;;;;;4.72;1.48;;;11.80;99.90;;;;;;4807861;29;20038;-78
2020/12/08 07:07:57;;;;;;;5.47;1.48;;;11.80;99.90;;;;;;4804824;29;20027;-78
2020/12/08 07:10:24;;;;;;;4.05;1.58;;;11.90;99.90;;;;;;4788770;29;20046;-78
2020/12/08 07:12:52;;;;;;;6.65;2.03;;;11.90;99.90;;;;;;4805010;29;20043;-79
2020/12/08 07:15:26;;;;;;;2.60;1.50;;;12.00;99.90;;;;;;4813404;29;20379;-79
2020/12/08 07:18:04;;;;;;;6.63;1.75;;;12.00;99.90;;;;;;4800838;29;20924;-78
2020/12/08 07:20:30;;;;;;;3.88;1.70;;;12.10;99.90;;;;;;4804403;29;20038;-78
2020/12/08 07:23:04;;;;;;;5.50;2.08;;;12.10;99.90;;;;;;4788481;29;20083;-78
2020/12/08 07:25:31;;;;;;;3.00;1.48;;;12.10;99.90;;;;;;4809626;29;20057;-78
2020/12/08 07:27:58;;;;;;;7.32;2.38;;;12.10;99.90;;;;;;4813976;29;20122;-79
2020/12/08 07:30:26;;;;;;;5.35;1.50;;;12.10;99.90;;;;;;4804347;29;20543;-79
2020/12/08 07:32:54;;;;;;;3.15;1.35;;;12.20;99.90;;;;;;4788090;29;20042;-77
2020/12/08 07:35:30;;;;;;;6.28;1.95;;;12.20;99.90;;;;;;4807282;29;20397;-78
2020/12/08 07:37:58;;;;;;;4.28;1.30;;;12.30;99.90;;;;;;4806226;29;20026;-78
2020/12/08 07:40:36;;;;;;;4.28;1.73;;;12.40;99.90;;;;;;4822299;29;20041;-79
2020/12/08 07:43:04;;;;;;;1.92;1.20;;;12.40;99.90;;;;;;4822385;29;20086;-78
2020/12/08 07:45:31;;;;;;;2.15;1.25;;;12.50;99.90;;;;;;4804582;29;20027;-78
2020/12/08 07:47:59;;;;;;;4.35;1.15;;;12.50;99.90;;;;;;4804255;29;20114;-78
2020/12/08 07:50:28;;;;;;;4.35;1.40;;;12.60;99.90;;;;;;4804058;29;20093;-78
2020/12/08 07:53:03;;;;;;;2.90;1.00;;;12.60;99.90;;;;;;4804236;29;20387;-78
2020/12/08 07:55:30;;;;;;;3.05;1.40;;;12.70;99.90;;;;;;4804089;29;20031;-78
2020/12/08 07:57:57;;;;;;;4.75;1.10;;;12.70;99.90;;;;;;4820364;29;20035;-78
2020/12/08 08:00:23;;;;;;;5.10;1.10;;;12.80;99.90;;;;;;4821923;29;20041;-78
2020/12/08 08:02:50;;;;;;;5.90;1.50;;;12.90;99.90;;;;;;4822105;29;20059;-78
2020/12/08 08:05:16;;;;;;;2.13;1.25;;;13.00;99.90;;;;;;4821980;29;20489;-78
2020/12/08 08:07:42;;;;;;;5.60;1.42;;;13.00;99.90;;;;;;4793332;29;20058;-78
2020/12/08 08:10:08;;;;;;;4.65;1.20;;;13.00;99.90;;;;;;4803557;29;20026;-78
2020/12/08 08:12:34;;;;;;;2.95;1.52;;;13.10;99.90;;;;;;4803481;29;20057;-78
2020/12/08 08:15:00;;;;;;;2.90;1.38;;;13.20;99.90;;;;;;4803773;29;20034;-78
2020/12/08 08:17:26;;;;;;;3.22;0.98;;;13.20;99.90;;;;;;4794903;29;20406;-78
2020/12/08 08:19:52;;;;;;;2.92;1.10;;;13.20;99.90;;;;;;4821767;29;20521;-78
2020/12/08 08:22:19;;;;;;;7.60;1.60;;;13.30;99.90;;;;;;4821461;29;20035;-78
2020/12/08 08:24:45;;;;;;;2.63;1.15;;;13.30;99.90;;;;;;4821558;29;20087;-78
2020/12/08 08:27:11;;;;;;;2.45;1.00;;;13.40;99.90;;;;;;4821425;29;20105;-79
2020/12/08 08:29:37;;;;;;;5.10;1.48;;;13.40;99.90;;;;;;4821170;29;20038;-78
2020/12/08 08:32:03;;;;;;;14.95;1.63;;;13.50;99.90;;;;;;4788329;29;20447;-78
2020/12/08 08:34:29;;;;;;;4.38;1.17;;;13.60;99.90;;;;;;4803619;29;20099;-78
2020/12/08 08:36:56;;;;;;;3.25;1.48;;;13.60;99.90;;;;;;4803191;29;20031;-79
2020/12/08 08:39:22;;;;;;;3.40;1.60;;;13.60;99.90;;;;;;4809911;29;20035;-79
2020/12/08 08:41:51;;;;;;;7.90;1.50;;;13.70;99.90;;;;;;4804924;29;20379;-79
2020/12/08 08:44:17;;;;;;;5.50;1.52;;;13.80;99.90;;;;;;4821176;29;20030;-78
2020/12/08 08:46:43;;;;;;;4.95;1.27;;;13.80;99.90;;;;;;4821514;29;20109;-78
2020/12/08 08:49:14;;;;;;;3.72;1.35;;;13.90;99.90;;;;;;4800313;29;20125;-78
2020/12/08 08:51:45;;;;;;;4.40;1.35;;;13.90;99.90;;;;;;4803013;29;20106;-78
2020/12/08 08:54:12;;;;;;;2.47;1.48;;;14.10;99.90;;;;;;4802869;29;20046;-78
2020/12/08 08:56:39;;;;;;;3.30;1.02;;;14.20;99.90;;;;;;4803231;29;20439;-78
2020/12/08 08:59:06;;;;;;;2.72;1.60;;;14.30;99.90;;;;;;4803516;29;20035;-78
2020/12/08 09:01:33;;;;;;;3.20;1.58;;;14.40;99.90;;;;;;4802981;29;20088;-78
2020/12/08 09:04:00;;;;;;;3.42;1.23;;;14.50;99.90;;;;;;4802892;29;20501;-78
2020/12/08 09:06:26;;;;;;;3.60;1.67;;;14.60;99.90;;;;;;4802862;29;20034;-78
2020/12/08 09:08:52;;;;;;;2.47;1.30;;;14.60;99.90;;;;;;4802682;29;20037;-79
2020/12/08 09:11:18;;;;;;;2.65;1.17;;;14.70;99.90;;;;;;4817060;29;20038;-78
2020/12/08 09:13:44;;;;;;;3.53;1.05;;;14.80;99.90;;;;;;4803610;29;20133;-79
2020/12/08 09:16:11;;;;;;;3.55;1.40;;;14.90;99.90;;;;;;4821011;29;20037;-78
2020/12/08 09:18:37;;;;;;;1.83;1.10;;;15.00;99.90;;;;;;4820751;29;20038;-78
2020/12/08 09:21:03;;;;;;;3.92;1.15;;;15.10;99.90;;;;;;4819995;29;20096;-78
2020/12/08 09:23:30;;;;;;;3.95;1.48;;;15.10;99.90;;;;;;4820848;29;20074;-78
2020/12/08 09:25:57;;;;;;;5.15;1.70;;;15.20;99.90;;;;;;4820625;29;20378;-79
2020/12/08 09:28:25;;;;;;;3.63;1.30;;;15.40;99.90;;;;;;4819517;29;20030;-77
2020/12/08 09:30:52;;;;;;;9.07;2.08;;;15.50;99.90;;;;;;4803099;29;20037;-78
2020/12/08 09:33:18;;;;;;;4.65;1.05;;;15.60;99.90;;;;;;4820361;29;20034;-78
2020/12/08 09:35:44;;;;;;;2.42;1.23;;;15.90;99.90;;;;;;4820650;29;20053;-78
2020/12/08 09:38:10;;;;;;;3.80;1.42;;;16.10;99.90;;;;;;4820521;29;20477;-79
2020/12/08 09:40:38;;;;;;;4.40;1.52;;;16.00;99.90;;;;;;4819846;29;20026;-79
2020/12/08 09:43:05;;;;;;;4.60;1.25;;;16.00;99.90;;;;;;4802474;29;20478;-78
2020/12/08 09:45:32;;;;;;;3.75;0.88;;;16.00;99.90;;;;;;4802160;29;20035;-78
2020/12/08 09:47:58;;;;;;;4.72;1.50;;;16.20;99.90;;;;;;4802921;29;20402;-78
2020/12/08 09:50:24;;;;;;;6.57;1.15;;;16.30;99.90;;;;;;4802685;29;20029;-77
2020/12/08 09:52:50;;;;;;;13.43;1.00;;;16.30;99.90;;;;;;4817283;29;20043;-76
2020/12/08 09:55:16;;;;;;;5.95;1.48;;;16.40;99.90;;;;;;4818678;29;20031;-86
2020/12/08 09:57:42;;;;;;;5.00;0.75;;;16.50;99.90;;;;;;4807433;29;20035;-88
2020/12/08 10:00:09;;;;;;;8.73;1.05;;;16.60;99.90;;;;;;4803324;29;20084;-76
2020/12/08 10:02:36;;;;;;;3.70;1.08;;;16.70;99.90;;;;;;4810006;29;20115;-82
2020/12/08 10:05:03;;;;;;;4.80;1.02;;;16.70;99.90;;;;;;4824310;29;20054;-77
2020/12/08 10:07:29;;;;;;;3.40;1.23;;;16.80;99.90;;;;;;4818446;29;20035;-78
2020/12/08 10:09:55;;;;;;;4.70;1.33;;;16.90;99.90;;;;;;4817143;29;20034;-77
2020/12/08 10:12:21;;;;;;;6.03;1.50;;;16.60;99.90;;;;;;4819260;29;20042;-77
2020/12/08 10:14:48;;;;;;;5.75;0.93;;;16.60;99.90;;;;;;4819541;29;20045;-77
2020/12/08 10:17:17;;;;;;;4.47;0.93;;;16.80;99.90;;;;;;4819519;29;20034;-77
2020/12/08 10:19:44;;;;;;;5.55;1.50;;;16.80;99.90;;;;;;4803072;29;20049;-77
2020/12/08 10:22:12;;;;;;;8.10;1.98;;;16.80;99.90;;;;;;4819427;29;20035;-76
2020/12/08 10:24:39;;;;;;;3.20;0.90;;;17.00;99.90;;;;;;4816877;29;20042;-87
2020/12/08 10:27:06;;;;;;;7.82;1.38;;;17.10;99.90;;;;;;4811229;29;20118;-76
2020/12/08 10:29:33;;;;;;;3.60;1.50;;;17.30;99.90;;;;;;4819349;29;20598;-77
2020/12/08 10:31:59;;;;;;;4.65;1.20;;;17.50;99.90;;;;;;4819916;29;20604;-76
2020/12/08 10:34:26;;;;;;;4.20;1.27;;;17.60;99.90;;;;;;4803023;29;20493;-76
2020/12/08 10:36:52;;;;;;;5.95;1.20;;;17.70;99.90;;;;;;4819549;29;20095;-76
2020/12/08 10:39:18;;;;;;;3.83;0.80;;;17.70;99.90;;;;;;4819105;29;20104;-76
2020/12/08 10:41:45;;;;;;;4.28;1.00;;;17.60;99.90;;;;;;4820643;29;20079;-76
2020/12/08 10:44:11;;;;;;;4.85;1.15;;;17.70;99.90;;;;;;4806430;29;20037;-77
2020/12/08 10:46:37;;;;;;;4.55;0.98;;;17.60;99.90;;;;;;4822820;29;20042;-76
2020/12/08 10:49:05;;;;;;;4.35;1.38;;;17.50;99.90;;;;;;4819586;29;20023;-76
2020/12/08 10:51:31;;;;;;;4.65;1.70;;;17.10;99.90;;;;;;4804684;29;20046;-76
2020/12/08 10:53:57;;;;;;;3.15;1.10;;;17.00;99.90;;;;;;4804358;29;20517;-76
2020/12/08 10:56:25;;;;;;;4.72;0.80;;;16.60;99.90;;;;;;4806787;29;20103;-76
2020/12/08 10:58:53;;;;;;;4.63;1.25;;;16.50;99.90;;;;;;4801209;29;20065;-76
2020/12/08 11:01:22;;;;;;;5.32;1.15;;;16.30;99.90;;;;;;4822261;29;20030;-77
2020/12/08 11:03:49;;;;;;;3.17;1.00;;;16.30;99.90;;;;;;4819382;29;20035;-77
2020/12/08 11:06:27;;;;;;;3.88;1.05;;;16.20;99.90;;;;;;4822156;29;20103;-76
2020/12/08 11:08:55;;;;;;;8.18;1.45;;;16.20;99.90;;;;;;4822413;29;20062;-77
2020/12/08 11:11:23;;;;;;;6.25;1.83;;;16.20;99.90;;;;;;4822174;29;20199;-77
2020/12/08 11:13:49;;;;;;;6.30;1.42;;;16.30;99.90;;;;;;4804396;29;20383;-76
2020/12/08 11:16:16;;;;;;;3.75;0.70;;;16.20;99.90;;;;;;4822303;29;20034;-76
2020/12/08 11:18:42;;;;;;;8.18;1.42;;;16.20;99.90;;;;;;4821913;29;20042;-76
2020/12/08 11:21:09;;;;;;;13.13;1.85;;;16.30;99.90;;;;;;4820692;29;20027;-77
2020/12/08 11:23:37;;;;;;;4.97;1.77;;;16.30;99.90;;;;;;4821539;29;20054;-76
2020/12/08 11:26:03;;;;;;;10.07;1.20;;;16.40;99.90;;;;;;4821947;29;20042;-76
2020/12/08 11:28:30;;;;;;;4.75;1.20;;;16.20;99.90;;;;;;4819794;29;20034;-82
2020/12/08 11:30:57;;;;;;;3.70;0.85;;;16.10;99.90;;;;;;4818119;29;20037;-83
2020/12/08 11:33:24;;;;;;;5.97;1.40;;;16.10;99.90;;;;;;4805516;29;20054;-83
2020/12/08 11:35:51;;;;;;;6.18;0.82;;;16.10;99.90;;;;;;4821902;29;20030;-83
2020/12/08 11:38:17;;;;;;;7.13;1.08;;;16.20;99.90;;;;;;4807701;29;20398;-77
2020/12/08 11:40:44;;;;;;;5.97;1.33;;;16.20;99.90;;;;;;4807174;29;20387;-81
2020/12/08 11:43:11;;;;;;;4.38;1.30;;;16.00;99.90;;;;;;4821948;29;20569;-84
2020/12/08 11:45:37;;;;;;;3.22;1.27;;;16.00;99.90;;;;;;4822245;29;20105;-85
2020/12/08 11:48:03;;;;;;;2.75;1.52;;;15.90;99.90;;;;;;4821959;29;20045;-76
2020/12/08 11:50:29;;;;;;;6.55;0.90;;;15.90;99.90;;;;;;4807660;29;20092;-78
2020/12/08 11:52:56;;;;;;;3.72;1.00;;;15.90;99.90;;;;;;4802872;29;20038;-77
2020/12/08 11:55:23;;;;;;;3.40;1.00;;;15.90;99.90;;;;;;4809283;29;20048;-77
2020/12/08 11:57:49;;;;;;;1.83;1.08;;;15.90;99.90;;;;;;4839774;29;20041;-81
2020/12/08 12:00:16;;;;;;;3.92;1.40;;;15.90;99.90;;;;;;4839455;29;20404;-82
2020/12/08 12:02:42;;;;;;;5.60;1.23;;;15.90;99.90;;;;;;4839692;29;20037;-78
2020/12/08 12:05:08;;;;;;;3.83;1.25;;;15.80;99.90;;;;;;4837642;29;20034;-77
2020/12/08 12:07:35;;;;;;;4.10;1.23;;;15.80;99.90;;;;;;4819624;29;20061;-77
2020/12/08 12:10:01;;;;;;;5.32;1.10;;;15.80;99.90;;;;;;4820044;29;20026;-77
2020/12/08 12:12:27;;;;;;;6.97;1.00;;;15.80;99.90;;;;;;4819579;29;20066;-77
2020/12/08 12:14:54;;;;;;;6.50;1.13;;;15.80;99.90;;;;;;4819624;29;20049;-77
2020/12/08 12:17:20;;;;;;;4.53;1.08;;;15.70;99.90;;;;;;4824483;29;20026;-76
2020/12/08 12:19:46;;;;;;;9.85;1.98;;;15.60;99.90;;;;;;4802890;29;20079;-76
2020/12/08 12:22:12;;;;;;;4.72;0.98;;;15.60;99.90;;;;;;4820431;29;20037;-77
2020/12/08 12:24:39;;;;;;;13.95;2.85;;;15.60;99.90;;;;;;4821094;29;20117;-77
2020/12/08 12:27:05;;;;;;;7.45;1.75;;;15.60;99.90;;;;;;4821062;29;20126;-77
2020/12/08 12:29:32;;;;;;;7.38;2.22;;;15.60;99.90;;;;;;4821135;29;20042;-77
2020/12/08 12:31:58;;;;;;;4.45;1.33;;;15.60;99.90;;;;;;4821821;29;20393;-85
2020/12/08 12:34:24;;;;;;;4.60;1.00;;;15.60;99.90;;;;;;4821124;29;20125;-77
2020/12/08 12:36:50;;;;;;;6.32;1.63;;;15.60;99.90;;;;;;4820782;29;20039;-78
2020/12/08 12:39:17;;;;;;;6.38;1.05;;;15.60;99.90;;;;;;4820680;29;20447;-77
2020/12/08 12:41:44;;;;;;;4.78;1.17;;;15.50;99.90;;;;;;4820934;29;20027;-77
2020/12/08 12:44:11;;;;;;;5.53;1.65;;;15.50;99.90;;;;;;4820622;29;20065;-77
2020/12/08 12:46:37;;;;;;;2.45;0.80;;;15.50;99.90;;;;;;4804381;29;20109;-77
2020/12/08 12:49:03;;;;;;;5.20;1.20;;;15.50;99.90;;;;;;4820687;29;20121;-77
2020/12/08 12:51:32;;;;;;;5.75;1.67;;;15.50;99.90;;;;;;4820738;29;20061;-79